sensor_id;sensor_type;location;lat;lon;timestamp;temperature;humidity
4411;DHT22;2218;51.408;7.208;2023-07-24T00:01:03;23.10;54.60
4411;DHT22;2218;51.408;7.208;2023-07-24T00:03:29;23.10;54.60
4411;DHT22;2218;51.408;7.208;2023-07-24T00:05:59;23.10;54.60
4411;DHT22;2218;51.408;7.208;2023-07-24T00:08:26;23.10;54.60
4411;DHT22;2218;51.408;7.208;2023-07-24T00:10:53;23.10;54.70
4411;DHT22;2218;51.408;7.208;2023-07-24T00:13:20;23.10;54.60
4411;DHT22;2218;51.408;7.208;2023-07-24T00:15:46;23.10;54.70
4411;DHT22;2218;51.408;7.208;2023-07-24T00:18:13;23.10;54.70
4411;DHT22;2218;51.408;7.208;2023-07-24T00:20:40;23.10;54.70
4411;DHT22;2218;51.408;7.208;2023-07-24T00:23:09;23.10;54.70
4411;DHT22;2218;51.408;7.208;2023-07-24T00:25:35;23.10;54.80
4411;DHT22;2218;51.408;7.208;2023-07-24T00:28:02;23.10;54.80
4411;DHT22;2218;51.408;7.208;2023-07-24T00:30:30;23.10;54.80
4411;DHT22;2218;51.408;7.208;2023-07-24T00:32:57;23.10;54.90
4411;DHT22;2218;51.408;7.208;2023-07-24T00:35:25;23.10;54.90
4411;DHT22;2218;51.408;7.208;2023-07-24T00:37:52;23.10;54.90
4411;DHT22;2218;51.408;7.208;2023-07-24T00:40:21;23.10;54.90
4411;DHT22;2218;51.408;7.208;2023-07-24T00:42:48;23.10;55.40
4411;DHT22;2218;51.408;7.208;2023-07-24T00:45:15;23.10;54.90
4411;DHT22;2218;51.408;7.208;2023-07-24T00:47:42;23.10;54.90
4411;DHT22;2218;51.408;7.208;2023-07-24T00:50:11;23.10;54.90
4411;DHT22;2218;51.408;7.208;2023-07-24T00:52:39;23.00;54.90
4411;DHT22;2218;51.408;7.208;2023-07-24T00:55:07;23.10;55.00
4411;DHT22;2218;51.408;7.208;2023-07-24T00:57:38;23.10;55.00
4411;DHT22;2218;51.408;7.208;2023-07-24T01:00:06;23.10;55.00
4411;DHT22;2218;51.408;7.208;2023-07-24T01:02:34;23.10;55.00
4411;DHT22;2218;51.408;7.208;2023-07-24T01:05:02;23.00;55.00
4411;DHT22;2218;51.408;7.208;2023-07-24T01:07:29;23.10;55.10
4411;DHT22;2218;51.408;7.208;2023-07-24T01:09:57;23.10;55.10
4411;DHT22;2218;51.408;7.208;2023-07-24T01:12:27;23.00;55.00
4411;DHT22;2218;51.408;7.208;2023-07-24T01:15:08;23.10;55.10
4411;DHT22;2218;51.408;7.208;2023-07-24T01:17:43;23.00;55.10
4411;DHT22;2218;51.408;7.208;2023-07-24T01:20:16;23.10;55.20
4411;DHT22;2218;51.408;7.208;2023-07-24T01:22:57;23.10;55.20
4411;DHT22;2218;51.408;7.208;2023-07-24T01:25:32;23.10;55.20
4411;DHT22;2218;51.408;7.208;2023-07-24T01:28:07;23.10;55.20
4411;DHT22;2218;51.408;7.208;2023-07-24T01:30:35;23.00;55.20
4411;DHT22;2218;51.408;7.208;2023-07-24T01:33:02;23.10;55.20
4411;DHT22;2218;51.408;7.208;2023-07-24T01:35:30;23.10;55.20
4411;DHT22;2218;51.408;7.208;2023-07-24T01:37:58;23.10;55.30
4411;DHT22;2218;51.408;7.208;2023-07-24T01:40:28;23.00;55.20
4411;DHT22;2218;51.408;7.208;2023-07-24T01:42:57;23.00;55.20
4411;DHT22;2218;51.408;7.208;2023-07-24T01:45:26;23.00;55.20
4411;DHT22;2218;51.408;7.208;2023-07-24T01:47:53;23.00;55.20
4411;DHT22;2218;51.408;7.208;2023-07-24T01:50:20;23.00;55.20
4411;DHT22;2218;51.408;7.208;2023-07-24T01:52:47;23.00;55.80
4411;DHT22;2218;51.408;7.208;2023-07-24T01:55:14;23.00;55.30
4411;DHT22;2218;51.408;7.208;2023-07-24T01:57:41;23.00;55.20
4411;DHT22;2218;51.408;7.208;2023-07-24T02:00:09;23.00;55.30
4411;DHT22;2218;51.408;7.208;2023-07-24T02:02:38;23.00;55.30
4411;DHT22;2218;51.408;7.208;2023-07-24T02:05:05;23.00;55.30
4411;DHT22;2218;51.408;7.208;2023-07-24T02:07:32;23.00;55.30
4411;DHT22;2218;51.408;7.208;2023-07-24T02:09:59;23.00;55.80
4411;DHT22;2218;51.408;7.208;2023-07-24T02:12:26;23.00;55.30
4411;DHT22;2218;51.408;7.208;2023-07-24T02:14:53;23.00;55.30
4411;DHT22;2218;51.408;7.208;2023-07-24T02:17:20;23.00;55.30
4411;DHT22;2218;51.408;7.208;2023-07-24T02:19:50;23.00;55.30
4411;DHT22;2218;51.408;7.208;2023-07-24T02:22:17;23.00;55.30
4411;DHT22;2218;51.408;7.208;2023-07-24T02:24:44;23.00;55.30
4411;DHT22;2218;51.408;7.208;2023-07-24T02:27:12;23.00;55.40
4411;DHT22;2218;51.408;7.208;2023-07-24T02:29:40;23.00;55.40
4411;DHT22;2218;51.408;7.208;2023-07-24T02:32:07;23.00;55.40
4411;DHT22;2218;51.408;7.208;2023-07-24T02:34:34;23.00;55.40
4411;DHT22;2218;51.408;7.208;2023-07-24T02:37:03;23.00;55.40
4411;DHT22;2218;51.408;7.208;2023-07-24T02:39:30;23.00;55.40
4411;DHT22;2218;51.408;7.208;2023-07-24T02:41:57;23.00;55.40
4411;DHT22;2218;51.408;7.208;2023-07-24T02:44:23;23.00;55.50
4411;DHT22;2218;51.408;7.208;2023-07-24T02:46:50;23.00;55.50
4411;DHT22;2218;51.408;7.208;2023-07-24T02:49:17;23.00;55.50
4411;DHT22;2218;51.408;7.208;2023-07-24T02:51:44;23.00;55.50
4411;DHT22;2218;51.408;7.208;2023-07-24T02:54:12;23.00;55.50
4411;DHT22;2218;51.408;7.208;2023-07-24T02:56:39;23.00;55.50
4411;DHT22;2218;51.408;7.208;2023-07-24T02:59:06;23.00;55.50
4411;DHT22;2218;51.408;7.208;2023-07-24T03:01:33;23.00;55.50
4411;DHT22;2218;51.408;7.208;2023-07-24T03:04:00;23.00;55.50
4411;DHT22;2218;51.408;7.208;2023-07-24T03:06:27;23.00;55.50
4411;DHT22;2218;51.408;7.208;2023-07-24T03:08:54;23.00;55.50
4411;DHT22;2218;51.408;7.208;2023-07-24T03:11:22;23.00;55.50
4411;DHT22;2218;51.408;7.208;2023-07-24T03:13:49;23.00;55.60
4411;DHT22;2218;51.408;7.208;2023-07-24T03:16:16;23.00;55.50
4411;DHT22;2218;51.408;7.208;2023-07-24T03:18:45;23.00;55.50
4411;DHT22;2218;51.408;7.208;2023-07-24T03:21:12;23.00;55.50
4411;DHT22;2218;51.408;7.208;2023-07-24T03:23:39;23.00;55.50
4411;DHT22;2218;51.408;7.208;2023-07-24T03:26:06;23.00;55.50
4411;DHT22;2218;51.408;7.208;2023-07-24T03:28:34;23.00;55.60
4411;DHT22;2218;51.408;7.208;2023-07-24T03:31:02;23.00;55.60
4411;DHT22;2218;51.408;7.208;2023-07-24T03:33:29;23.00;55.60
4411;DHT22;2218;51.408;7.208;2023-07-24T03:35:55;23.00;55.60
4411;DHT22;2218;51.408;7.208;2023-07-24T03:38:22;23.00;55.60
4411;DHT22;2218;51.408;7.208;2023-07-24T03:40:51;23.00;55.70
4411;DHT22;2218;51.408;7.208;2023-07-24T03:43:18;23.00;55.60
4411;DHT22;2218;51.408;7.208;2023-07-24T03:45:47;22.90;55.60
4411;DHT22;2218;51.408;7.208;2023-07-24T03:48:14;23.00;55.70
4411;DHT22;2218;51.408;7.208;2023-07-24T03:50:40;23.00;55.60
4411;DHT22;2218;51.408;7.208;2023-07-24T03:53:07;23.00;55.70
4411;DHT22;2218;51.408;7.208;2023-07-24T03:55:34;23.00;55.70
4411;DHT22;2218;51.408;7.208;2023-07-24T03:58:02;23.00;55.70
4411;DHT22;2218;51.408;7.208;2023-07-24T04:00:28;23.00;55.70
4411;DHT22;2218;51.408;7.208;2023-07-24T04:02:57;23.00;55.70
4411;DHT22;2218;51.408;7.208;2023-07-24T04:05:24;23.00;55.70
4411;DHT22;2218;51.408;7.208;2023-07-24T04:07:51;23.00;55.70
4411;DHT22;2218;51.408;7.208;2023-07-24T04:10:18;22.90;55.70
4411;DHT22;2218;51.408;7.208;2023-07-24T04:12:45;23.00;55.80
4411;DHT22;2218;51.408;7.208;2023-07-24T04:15:12;23.00;55.80
4411;DHT22;2218;51.408;7.208;2023-07-24T04:17:39;23.00;55.80
4411;DHT22;2218;51.408;7.208;2023-07-24T04:20:09;23.00;55.80
4411;DHT22;2218;51.408;7.208;2023-07-24T04:22:36;23.00;55.80
4411;DHT22;2218;51.408;7.208;2023-07-24T04:25:04;22.90;55.80
4411;DHT22;2218;51.408;7.208;2023-07-24T04:27:31;23.00;55.90
4411;DHT22;2218;51.408;7.208;2023-07-24T04:29:58;23.00;55.90
4411;DHT22;2218;51.408;7.208;2023-07-24T04:32:26;23.00;55.90
4411;DHT22;2218;51.408;7.208;2023-07-24T04:34:53;23.00;55.90
4411;DHT22;2218;51.408;7.208;2023-07-24T04:37:21;23.00;55.90
4411;DHT22;2218;51.408;7.208;2023-07-24T04:39:48;22.90;55.90
4411;DHT22;2218;51.408;7.208;2023-07-24T04:42:15;23.00;55.90
4411;DHT22;2218;51.408;7.208;2023-07-24T04:44:42;23.00;56.00
4411;DHT22;2218;51.408;7.208;2023-07-24T04:47:09;23.00;56.00
4411;DHT22;2218;51.408;7.208;2023-07-24T04:49:36;22.90;55.90
4411;DHT22;2218;51.408;7.208;2023-07-24T04:52:03;22.90;55.90
4411;DHT22;2218;51.408;7.208;2023-07-24T04:54:32;22.90;55.90
4411;DHT22;2218;51.408;7.208;2023-07-24T04:56:59;22.90;55.90
4411;DHT22;2218;51.408;7.208;2023-07-24T04:59:26;22.90;55.90
4411;DHT22;2218;51.408;7.208;2023-07-24T05:01:53;22.90;56.50
4411;DHT22;2218;51.408;7.208;2023-07-24T05:04:19;22.90;56.00
4411;DHT22;2218;51.408;7.208;2023-07-24T05:06:46;22.90;56.00
4411;DHT22;2218;51.408;7.208;2023-07-24T05:09:13;22.90;56.00
4411;DHT22;2218;51.408;7.208;2023-07-24T05:11:42;22.90;56.00
4411;DHT22;2218;51.408;7.208;2023-07-24T05:14:10;22.90;56.00
4411;DHT22;2218;51.408;7.208;2023-07-24T05:16:37;22.90;56.00
4411;DHT22;2218;51.408;7.208;2023-07-24T05:19:03;22.90;56.00
4411;DHT22;2218;51.408;7.208;2023-07-24T05:21:30;22.90;56.00
4411;DHT22;2218;51.408;7.208;2023-07-24T05:23:57;22.90;55.80
4411;DHT22;2218;51.408;7.208;2023-07-24T05:26:24;22.90;55.80
4411;DHT22;2218;51.408;7.208;2023-07-24T05:28:52;22.90;55.90
4411;DHT22;2218;51.408;7.208;2023-07-24T05:31:20;22.90;55.80
4411;DHT22;2218;51.408;7.208;2023-07-24T05:33:47;22.90;55.80
4411;DHT22;2218;51.408;7.208;2023-07-24T05:36:13;22.90;55.70
4411;DHT22;2218;51.408;7.208;2023-07-24T05:38:40;22.90;55.80
4411;DHT22;2218;51.408;7.208;2023-07-24T05:41:07;22.90;55.90
4411;DHT22;2218;51.408;7.208;2023-07-24T05:43:34;22.90;55.90
4411;DHT22;2218;51.408;7.208;2023-07-24T05:46:02;22.90;55.90
4411;DHT22;2218;51.408;7.208;2023-07-24T05:48:29;22.90;56.00
4411;DHT22;2218;51.408;7.208;2023-07-24T05:50:56;22.90;55.90
4411;DHT22;2218;51.408;7.208;2023-07-24T05:53:23;22.90;56.00
4411;DHT22;2218;51.408;7.208;2023-07-24T05:55:57;22.90;56.00
4411;DHT22;2218;51.408;7.208;2023-07-24T05:58:25;22.90;56.00
4411;DHT22;2218;51.408;7.208;2023-07-24T06:00:52;22.90;56.00
4411;DHT22;2218;51.408;7.208;2023-07-24T06:03:22;22.90;56.10
4411;DHT22;2218;51.408;7.208;2023-07-24T06:05:51;22.90;56.10
4411;DHT22;2218;51.408;7.208;2023-07-24T06:08:19;22.90;56.10
4411;DHT22;2218;51.408;7.208;2023-07-24T06:10:47;22.90;56.10
4411;DHT22;2218;51.408;7.208;2023-07-24T06:13:14;22.90;56.10
4411;DHT22;2218;51.408;7.208;2023-07-24T06:15:41;22.90;56.10
4411;DHT22;2218;51.408;7.208;2023-07-24T06:18:08;22.90;56.10
4411;DHT22;2218;51.408;7.208;2023-07-24T06:20:36;22.90;56.20
4411;DHT22;2218;51.408;7.208;2023-07-24T06:23:03;22.90;56.20
4411;DHT22;2218;51.408;7.208;2023-07-24T06:25:30;22.90;56.20
4411;DHT22;2218;51.408;7.208;2023-07-24T06:27:58;22.90;56.20
4411;DHT22;2218;51.408;7.208;2023-07-24T06:30:25;22.90;56.20
4411;DHT22;2218;51.408;7.208;2023-07-24T06:32:52;22.90;56.20
4411;DHT22;2218;51.408;7.208;2023-07-24T06:35:19;22.90;56.20
4411;DHT22;2218;51.408;7.208;2023-07-24T06:37:47;22.90;56.30
4411;DHT22;2218;51.408;7.208;2023-07-24T06:40:14;22.90;56.30
4411;DHT22;2218;51.408;7.208;2023-07-24T06:42:41;22.90;56.30
4411;DHT22;2218;51.408;7.208;2023-07-24T06:45:08;22.90;56.30
4411;DHT22;2218;51.408;7.208;2023-07-24T06:47:36;22.90;56.20
4411;DHT22;2218;51.408;7.208;2023-07-24T06:50:03;22.90;56.30
4411;DHT22;2218;51.408;7.208;2023-07-24T06:52:31;22.90;56.20
4411;DHT22;2218;51.408;7.208;2023-07-24T06:54:59;22.90;56.20
4411;DHT22;2218;51.408;7.208;2023-07-24T06:57:26;22.90;56.20
4411;DHT22;2218;51.408;7.208;2023-07-24T06:59:53;22.90;56.20
4411;DHT22;2218;51.408;7.208;2023-07-24T07:02:20;22.90;56.10
4411;DHT22;2218;51.408;7.208;2023-07-24T07:04:47;22.90;56.10
4411;DHT22;2218;51.408;7.208;2023-07-24T07:07:13;22.90;56.10
4411;DHT22;2218;51.408;7.208;2023-07-24T07:09:40;22.90;56.00
4411;DHT22;2218;51.408;7.208;2023-07-24T07:12:09;22.90;56.00
4411;DHT22;2218;51.408;7.208;2023-07-24T07:14:36;22.90;56.00
4411;DHT22;2218;51.408;7.208;2023-07-24T07:17:03;22.90;56.00
4411;DHT22;2218;51.408;7.208;2023-07-24T07:19:30;22.90;56.00
4411;DHT22;2218;51.408;7.208;2023-07-24T07:21:57;22.90;56.00
4411;DHT22;2218;51.408;7.208;2023-07-24T07:24:24;22.90;56.00
4411;DHT22;2218;51.408;7.208;2023-07-24T07:26:51;22.90;56.00
4411;DHT22;2218;51.408;7.208;2023-07-24T07:29:19;22.90;56.00
4411;DHT22;2218;51.408;7.208;2023-07-24T07:31:46;22.90;55.90
4411;DHT22;2218;51.408;7.208;2023-07-24T07:34:13;22.90;55.90
4411;DHT22;2218;51.408;7.208;2023-07-24T07:36:39;22.90;55.90
4411;DHT22;2218;51.408;7.208;2023-07-24T07:39:06;22.90;55.90
4411;DHT22;2218;51.408;7.208;2023-07-24T07:41:35;22.90;55.90
4411;DHT22;2218;51.408;7.208;2023-07-24T07:44:02;22.90;55.90
4411;DHT22;2218;51.408;7.208;2023-07-24T07:46:30;22.90;55.90
4411;DHT22;2218;51.408;7.208;2023-07-24T07:48:57;22.90;55.90
4411;DHT22;2218;51.408;7.208;2023-07-24T07:51:24;22.90;55.90
4411;DHT22;2218;51.408;7.208;2023-07-24T07:53:51;22.90;55.90
4411;DHT22;2218;51.408;7.208;2023-07-24T07:56:18;22.90;55.90
4411;DHT22;2218;51.408;7.208;2023-07-24T07:58:45;22.90;55.80
4411;DHT22;2218;51.408;7.208;2023-07-24T08:01:12;22.90;55.80
4411;DHT22;2218;51.408;7.208;2023-07-24T08:03:40;22.90;55.80
4411;DHT22;2218;51.408;7.208;2023-07-24T08:06:07;22.90;55.80
4411;DHT22;2218;51.408;7.208;2023-07-24T08:08:34;22.90;55.70
4411;DHT22;2218;51.408;7.208;2023-07-24T08:11:04;23.00;55.60
4411;DHT22;2218;51.408;7.208;2023-07-24T08:13:32;23.00;56.30
4411;DHT22;2218;51.408;7.208;2023-07-24T08:15:59;23.00;56.30
4411;DHT22;2218;51.408;7.208;2023-07-24T08:18:28;22.90;56.20
4411;DHT22;2218;51.408;7.208;2023-07-24T08:20:57;23.00;56.40
4411;DHT22;2218;51.408;7.208;2023-07-24T08:23:23;23.00;56.80
4411;DHT22;2218;51.408;7.208;2023-07-24T08:25:51;22.90;56.20
4411;DHT22;2218;51.408;7.208;2023-07-24T08:28:19;23.00;56.20
4411;DHT22;2218;51.408;7.208;2023-07-24T08:30:46;22.90;56.20
4411;DHT22;2218;51.408;7.208;2023-07-24T08:33:22;23.00;56.20
4411;DHT22;2218;51.408;7.208;2023-07-24T08:35:59;23.00;56.20
4411;DHT22;2218;51.408;7.208;2023-07-24T08:38:27;23.00;56.20
4411;DHT22;2218;51.408;7.208;2023-07-24T08:41:03;23.00;56.20
4411;DHT22;2218;51.408;7.208;2023-07-24T08:43:32;23.00;56.20
4411;DHT22;2218;51.408;7.208;2023-07-24T08:46:01;23.00;56.20
4411;DHT22;2218;51.408;7.208;2023-07-24T08:48:30;23.00;56.10
4411;DHT22;2218;51.408;7.208;2023-07-24T08:51:03;23.00;56.20
4411;DHT22;2218;51.408;7.208;2023-07-24T08:53:30;23.00;56.10
4411;DHT22;2218;51.408;7.208;2023-07-24T08:55:59;23.00;56.10
4411;DHT22;2218;51.408;7.208;2023-07-24T08:58:28;23.00;56.10
4411;DHT22;2218;51.408;7.208;2023-07-24T09:00:56;23.00;56.10
4411;DHT22;2218;51.408;7.208;2023-07-24T09:03:23;23.00;56.10
4411;DHT22;2218;51.408;7.208;2023-07-24T09:05:50;23.00;56.10
4411;DHT22;2218;51.408;7.208;2023-07-24T09:08:29;23.00;56.10
4411;DHT22;2218;51.408;7.208;2023-07-24T09:10:57;23.00;56.10
4411;DHT22;2218;51.408;7.208;2023-07-24T09:13:24;23.00;56.00
4411;DHT22;2218;51.408;7.208;2023-07-24T09:15:51;23.00;56.10
4411;DHT22;2218;51.408;7.208;2023-07-24T09:18:18;23.00;56.00
4411;DHT22;2218;51.408;7.208;2023-07-24T09:20:45;23.00;56.00
4411;DHT22;2218;51.408;7.208;2023-07-24T09:23:13;23.00;56.00
4411;DHT22;2218;51.408;7.208;2023-07-24T09:25:43;23.00;56.00
4411;DHT22;2218;51.408;7.208;2023-07-24T09:28:11;23.00;56.00
4411;DHT22;2218;51.408;7.208;2023-07-24T09:30:40;23.00;56.00
4411;DHT22;2218;51.408;7.208;2023-07-24T09:33:09;23.00;56.00
4411;DHT22;2218;51.408;7.208;2023-07-24T09:35:36;23.00;55.90
4411;DHT22;2218;51.408;7.208;2023-07-24T09:38:05;23.10;55.90
4411;DHT22;2218;51.408;7.208;2023-07-24T09:40:42;23.10;56.00
4411;DHT22;2218;51.408;7.208;2023-07-24T09:43:18;23.10;55.90
4411;DHT22;2218;51.408;7.208;2023-07-24T09:45:47;23.10;55.90
4411;DHT22;2218;51.408;7.208;2023-07-24T09:48:17;23.10;55.90
4411;DHT22;2218;51.408;7.208;2023-07-24T09:50:46;23.10;55.90
4411;DHT22;2218;51.408;7.208;2023-07-24T09:53:18;23.10;55.90
4411;DHT22;2218;51.408;7.208;2023-07-24T09:55:54;23.10;55.90
4411;DHT22;2218;51.408;7.208;2023-07-24T09:58:24;23.10;55.90
4411;DHT22;2218;51.408;7.208;2023-07-24T10:00:52;23.10;56.00
4411;DHT22;2218;51.408;7.208;2023-07-24T10:03:21;23.10;55.90
4411;DHT22;2218;51.408;7.208;2023-07-24T10:05:49;23.10;55.90
4411;DHT22;2218;51.408;7.208;2023-07-24T10:08:17;23.10;55.80
4411;DHT22;2218;51.408;7.208;2023-07-24T10:10:45;23.10;56.00
4411;DHT22;2218;51.408;7.208;2023-07-24T10:13:14;23.10;55.90
4411;DHT22;2218;51.408;7.208;2023-07-24T10:15:41;23.10;55.90
4411;DHT22;2218;51.408;7.208;2023-07-24T10:18:10;23.10;55.90
4411;DHT22;2218;51.408;7.208;2023-07-24T10:20:38;23.10;55.90
4411;DHT22;2218;51.408;7.208;2023-07-24T10:23:08;23.10;55.90
4411;DHT22;2218;51.408;7.208;2023-07-24T10:25:39;23.10;56.00
4411;DHT22;2218;51.408;7.208;2023-07-24T10:28:08;23.10;55.90
4411;DHT22;2218;51.408;7.208;2023-07-24T10:30:39;23.10;55.90
4411;DHT22;2218;51.408;7.208;2023-07-24T10:33:08;23.10;55.90
4411;DHT22;2218;51.408;7.208;2023-07-24T10:35:40;23.10;56.00
4411;DHT22;2218;51.408;7.208;2023-07-24T10:38:09;23.10;55.90
4411;DHT22;2218;51.408;7.208;2023-07-24T10:40:36;23.10;55.90
4411;DHT22;2218;51.408;7.208;2023-07-24T10:43:07;23.10;55.90
4411;DHT22;2218;51.408;7.208;2023-07-24T10:45:46;23.10;56.00
4411;DHT22;2218;51.408;7.208;2023-07-24T10:48:14;23.10;56.00
4411;DHT22;2218;51.408;7.208;2023-07-24T10:50:43;23.10;56.00
4411;DHT22;2218;51.408;7.208;2023-07-24T10:53:13;23.10;56.10
4411;DHT22;2218;51.408;7.208;2023-07-24T10:55:42;23.10;56.10
4411;DHT22;2218;51.408;7.208;2023-07-24T10:58:09;23.10;56.10
4411;DHT22;2218;51.408;7.208;2023-07-24T11:00:40;23.10;56.10
4411;DHT22;2218;51.408;7.208;2023-07-24T11:03:09;23.10;56.10
4411;DHT22;2218;51.408;7.208;2023-07-24T11:05:39;23.10;56.10
4411;DHT22;2218;51.408;7.208;2023-07-24T11:08:11;23.10;56.10
4411;DHT22;2218;51.408;7.208;2023-07-24T11:10:44;23.10;56.00
4411;DHT22;2218;51.408;7.208;2023-07-24T11:13:13;23.10;56.10
4411;DHT22;2218;51.408;7.208;2023-07-24T11:15:41;23.10;56.00
4411;DHT22;2218;51.408;7.208;2023-07-24T11:18:08;23.10;56.00
4411;DHT22;2218;51.408;7.208;2023-07-24T11:20:37;23.10;56.00
4411;DHT22;2218;51.408;7.208;2023-07-24T11:23:09;23.10;56.00
4411;DHT22;2218;51.408;7.208;2023-07-24T11:25:37;23.10;56.00
4411;DHT22;2218;51.408;7.208;2023-07-24T11:28:05;23.10;56.00
4411;DHT22;2218;51.408;7.208;2023-07-24T11:30:32;23.10;56.00
4411;DHT22;2218;51.408;7.208;2023-07-24T11:33:03;23.10;56.00
4411;DHT22;2218;51.408;7.208;2023-07-24T11:35:33;23.10;56.00
4411;DHT22;2218;51.408;7.208;2023-07-24T11:38:01;23.10;56.00
4411;DHT22;2218;51.408;7.208;2023-07-24T11:40:32;23.10;56.00
4411;DHT22;2218;51.408;7.208;2023-07-24T11:43:02;23.10;56.00
4411;DHT22;2218;51.408;7.208;2023-07-24T11:45:30;23.10;56.00
4411;DHT22;2218;51.408;7.208;2023-07-24T11:47:57;23.10;56.00
4411;DHT22;2218;51.408;7.208;2023-07-24T11:50:26;23.10;56.00
4411;DHT22;2218;51.408;7.208;2023-07-24T11:52:53;23.10;56.00
4411;DHT22;2218;51.408;7.208;2023-07-24T11:55:30;23.10;56.00
4411;DHT22;2218;51.408;7.208;2023-07-24T11:58:00;23.10;56.00
4411;DHT22;2218;51.408;7.208;2023-07-24T12:00:32;23.10;56.00
4411;DHT22;2218;51.408;7.208;2023-07-24T12:03:01;23.10;56.00
4411;DHT22;2218;51.408;7.208;2023-07-24T12:05:37;23.10;56.00
4411;DHT22;2218;51.408;7.208;2023-07-24T12:08:05;23.10;56.00
4411;DHT22;2218;51.408;7.208;2023-07-24T12:10:35;23.10;56.00
4411;DHT22;2218;51.408;7.208;2023-07-24T12:13:02;23.10;56.00
4411;DHT22;2218;51.408;7.208;2023-07-24T12:15:30;23.10;56.00
4411;DHT22;2218;51.408;7.208;2023-07-24T12:17:58;23.10;56.00
4411;DHT22;2218;51.408;7.208;2023-07-24T12:20:26;23.10;56.00
4411;DHT22;2218;51.408;7.208;2023-07-24T12:22:55;23.10;56.00
4411;DHT22;2218;51.408;7.208;2023-07-24T12:25:23;23.00;55.90
4411;DHT22;2218;51.408;7.208;2023-07-24T12:27:50;23.10;56.00
4411;DHT22;2218;51.408;7.208;2023-07-24T12:30:17;23.10;56.00
4411;DHT22;2218;51.408;7.208;2023-07-24T12:32:44;23.10;56.00
4411;DHT22;2218;51.408;7.208;2023-07-24T12:35:11;23.10;56.00
4411;DHT22;2218;51.408;7.208;2023-07-24T12:37:38;23.10;56.00
4411;DHT22;2218;51.408;7.208;2023-07-24T12:40:08;23.10;55.80
4411;DHT22;2218;51.408;7.208;2023-07-24T12:42:35;23.10;55.80
4411;DHT22;2218;51.408;7.208;2023-07-24T12:45:03;23.10;55.80
4411;DHT22;2218;51.408;7.208;2023-07-24T12:47:32;23.10;55.70
4411;DHT22;2218;51.408;7.208;2023-07-24T12:49:59;23.10;55.70
4411;DHT22;2218;51.408;7.208;2023-07-24T12:52:29;23.10;55.70
4411;DHT22;2218;51.408;7.208;2023-07-24T12:54:56;23.10;55.70
4411;DHT22;2218;51.408;7.208;2023-07-24T12:57:24;23.10;55.70
4411;DHT22;2218;51.408;7.208;2023-07-24T12:59:52;23.10;55.70
4411;DHT22;2218;51.408;7.208;2023-07-24T13:02:19;23.10;55.70
4411;DHT22;2218;51.408;7.208;2023-07-24T13:04:45;23.00;55.70
4411;DHT22;2218;51.408;7.208;2023-07-24T13:07:12;23.00;55.70
4411;DHT22;2218;51.408;7.208;2023-07-24T13:09:40;23.00;55.80
4411;DHT22;2218;51.408;7.208;2023-07-24T13:12:08;23.00;55.80
4411;DHT22;2218;51.408;7.208;2023-07-24T13:14:37;23.00;56.40
4411;DHT22;2218;51.408;7.208;2023-07-24T13:17:04;23.00;55.80
4411;DHT22;2218;51.408;7.208;2023-07-24T13:19:32;23.00;55.90
4411;DHT22;2218;51.408;7.208;2023-07-24T13:21:59;23.00;55.90
4411;DHT22;2218;51.408;7.208;2023-07-24T13:24:26;23.00;55.90
4411;DHT22;2218;51.408;7.208;2023-07-24T13:26:53;23.00;55.90
4411;DHT22;2218;51.408;7.208;2023-07-24T13:29:20;23.00;55.90
4411;DHT22;2218;51.408;7.208;2023-07-24T13:31:49;23.00;55.90
4411;DHT22;2218;51.408;7.208;2023-07-24T13:34:17;23.00;55.90
4411;DHT22;2218;51.408;7.208;2023-07-24T13:36:45;23.00;55.90
4411;DHT22;2218;51.408;7.208;2023-07-24T13:39:12;23.00;55.90
4411;DHT22;2218;51.408;7.208;2023-07-24T13:41:39;23.00;55.90
4411;DHT22;2218;51.408;7.208;2023-07-24T13:44:06;23.00;55.90
4411;DHT22;2218;51.408;7.208;2023-07-24T13:46:33;23.00;55.90
4411;DHT22;2218;51.408;7.208;2023-07-24T13:49:01;23.00;55.90
4411;DHT22;2218;51.408;7.208;2023-07-24T13:51:28;23.00;55.90
4411;DHT22;2218;51.408;7.208;2023-07-24T13:53:55;23.00;55.90
4411;DHT22;2218;51.408;7.208;2023-07-24T13:56:22;23.00;55.90
4411;DHT22;2218;51.408;7.208;2023-07-24T13:58:49;23.00;55.90
4411;DHT22;2218;51.408;7.208;2023-07-24T14:01:16;23.00;55.90
4411;DHT22;2218;51.408;7.208;2023-07-24T14:03:43;23.00;55.90
4411;DHT22;2218;51.408;7.208;2023-07-24T14:06:11;23.00;55.90
4411;DHT22;2218;51.408;7.208;2023-07-24T14:08:38;23.00;55.90
4411;DHT22;2218;51.408;7.208;2023-07-24T14:11:05;23.00;55.90
4411;DHT22;2218;51.408;7.208;2023-07-24T14:13:32;23.00;55.90
4411;DHT22;2218;51.408;7.208;2023-07-24T14:15:59;23.00;55.90
4411;DHT22;2218;51.408;7.208;2023-07-24T14:18:25;23.00;55.90
4411;DHT22;2218;51.408;7.208;2023-07-24T14:20:52;23.00;55.90
4411;DHT22;2218;51.408;7.208;2023-07-24T14:23:22;23.00;55.90
4411;DHT22;2218;51.408;7.208;2023-07-24T14:25:49;23.00;55.90
4411;DHT22;2218;51.408;7.208;2023-07-24T14:28:16;23.00;55.90
4411;DHT22;2218;51.408;7.208;2023-07-24T14:30:43;23.00;55.90
4411;DHT22;2218;51.408;7.208;2023-07-24T14:33:10;23.00;55.80
4411;DHT22;2218;51.408;7.208;2023-07-24T14:35:37;23.00;55.90
4411;DHT22;2218;51.408;7.208;2023-07-24T14:38:03;23.00;56.40
4411;DHT22;2218;51.408;7.208;2023-07-24T14:40:32;23.00;55.80
4411;DHT22;2218;51.408;7.208;2023-07-24T14:42:59;23.00;55.80
4411;DHT22;2218;51.408;7.208;2023-07-24T14:45:26;23.00;55.80
4411;DHT22;2218;51.408;7.208;2023-07-24T14:47:52;23.00;55.80
4411;DHT22;2218;51.408;7.208;2023-07-24T14:50:19;23.00;55.80
4411;DHT22;2218;51.408;7.208;2023-07-24T14:52:46;23.00;55.80
4411;DHT22;2218;51.408;7.208;2023-07-24T14:55:14;23.00;55.80
4411;DHT22;2218;51.408;7.208;2023-07-24T14:57:43;23.00;55.80
4411;DHT22;2218;51.408;7.208;2023-07-24T15:00:10;23.00;55.80
4411;DHT22;2218;51.408;7.208;2023-07-24T15:02:38;23.00;55.80
4411;DHT22;2218;51.408;7.208;2023-07-24T15:05:05;23.00;55.80
4411;DHT22;2218;51.408;7.208;2023-07-24T15:07:33;23.00;55.80
4411;DHT22;2218;51.408;7.208;2023-07-24T15:09:59;23.00;55.80
4411;DHT22;2218;51.408;7.208;2023-07-24T15:12:26;23.00;55.70
4411;DHT22;2218;51.408;7.208;2023-07-24T15:14:54;23.00;55.80
4411;DHT22;2218;51.408;7.208;2023-07-24T15:17:21;23.00;55.70
4411;DHT22;2218;51.408;7.208;2023-07-24T15:19:49;23.00;55.70
4411;DHT22;2218;51.408;7.208;2023-07-24T15:22:16;23.00;55.80
4411;DHT22;2218;51.408;7.208;2023-07-24T15:24:43;23.00;55.80
4411;DHT22;2218;51.408;7.208;2023-07-24T15:27:10;23.00;55.80
4411;DHT22;2218;51.408;7.208;2023-07-24T15:29:37;23.00;55.80
4411;DHT22;2218;51.408;7.208;2023-07-24T15:32:06;23.00;55.80
4411;DHT22;2218;51.408;7.208;2023-07-24T15:34:34;23.00;55.80
4411;DHT22;2218;51.408;7.208;2023-07-24T15:37:01;23.00;55.80
4411;DHT22;2218;51.408;7.208;2023-07-24T15:39:27;23.00;55.80
4411;DHT22;2218;51.408;7.208;2023-07-24T15:41:54;23.00;55.80
4411;DHT22;2218;51.408;7.208;2023-07-24T15:44:21;23.00;55.80
4411;DHT22;2218;51.408;7.208;2023-07-24T15:46:48;23.00;55.80
4411;DHT22;2218;51.408;7.208;2023-07-24T15:49:17;23.00;55.80
4411;DHT22;2218;51.408;7.208;2023-07-24T15:51:44;23.00;55.80
4411;DHT22;2218;51.408;7.208;2023-07-24T15:54:11;23.00;55.90
4411;DHT22;2218;51.408;7.208;2023-07-24T15:56:38;23.00;55.80
4411;DHT22;2218;51.408;7.208;2023-07-24T15:59:05;23.00;55.90
4411;DHT22;2218;51.408;7.208;2023-07-24T16:01:34;23.00;55.90
4411;DHT22;2218;51.408;7.208;2023-07-24T16:04:01;23.00;55.80
4411;DHT22;2218;51.408;7.208;2023-07-24T16:06:29;23.00;55.90